createdAt,value
2023-05-08T00:02:25.402Z,19.10
2023-05-08T00:04:53.685Z,19.08
2023-05-08T00:07:21.946Z,18.97
2023-05-08T00:09:50.411Z,18.92
2023-05-08T00:12:18.589Z,18.87
2023-05-08T00:14:46.831Z,18.81
2023-05-08T00:17:15.053Z,18.77
2023-05-08T00:19:43.273Z,18.74
2023-05-08T00:22:11.623Z,18.67
2023-05-08T00:24:39.888Z,18.66
2023-05-08T00:27:09.128Z,18.67
2023-05-08T00:29:37.473Z,18.62
2023-05-08T00:32:05.852Z,18.63
2023-05-08T00:34:34.131Z,18.59
2023-05-08T00:37:03.767Z,18.45
2023-05-08T00:39:32.189Z,18.37
2023-05-08T00:42:00.531Z,18.31
2023-05-08T00:44:28.787Z,18.27
2023-05-08T00:46:57.261Z,18.29
2023-05-08T00:49:26.258Z,18.24
2023-05-08T00:51:57.441Z,18.16
2023-05-08T00:54:27.439Z,18.08
2023-05-08T00:56:56.729Z,18.03
2023-05-08T00:59:29.902Z,18.01
2023-05-08T01:01:58.201Z,18.03
2023-05-08T01:04:27.725Z,18.10
2023-05-08T01:06:56.048Z,18.04
2023-05-08T01:09:24.259Z,17.92
2023-05-08T01:12:35.374Z,17.85
2023-05-08T01:15:21.943Z,17.83
2023-05-08T01:18:26.330Z,17.83
2023-05-08T01:21:06.642Z,17.78
2023-05-08T01:24:13.429Z,17.71
2023-05-08T01:26:52.848Z,17.64
2023-05-08T01:29:54.490Z,17.66
2023-05-08T01:32:27.330Z,17.62
2023-05-08T01:35:21.368Z,17.55
2023-05-08T01:38:07.231Z,17.46
2023-05-08T01:41:02.567Z,17.33
2023-05-08T01:43:51.476Z,17.20
2023-05-08T01:46:26.828Z,17.15
2023-05-08T01:49:00.834Z,17.08
2023-05-08T01:51:33.855Z,17.04
2023-05-08T01:54:09.444Z,17.01
2023-05-08T01:56:40.392Z,16.87
2023-05-08T01:59:11.215Z,16.75
2023-05-08T02:01:41.686Z,16.59
2023-05-08T02:04:11.334Z,16.46
2023-05-08T02:06:40.996Z,16.41
2023-05-08T02:09:11.252Z,16.38
2023-05-08T02:11:42.907Z,16.33
2023-05-08T02:14:15.154Z,16.24
2023-05-08T02:16:44.767Z,16.16
2023-05-08T02:19:15.569Z,16.07
2023-05-08T02:21:47.642Z,16.01
2023-05-08T02:24:17.352Z,15.92
2023-05-08T02:26:47.482Z,15.84
2023-05-08T02:29:16.690Z,15.78
2023-05-08T02:31:46.492Z,15.76
2023-05-08T02:34:15.234Z,15.73
2023-05-08T02:36:44.336Z,15.62
2023-05-08T02:39:15.055Z,15.50
2023-05-08T02:41:43.448Z,15.47
2023-05-08T02:44:11.867Z,15.45
2023-05-08T02:46:55.490Z,15.44
2023-05-08T02:49:34.545Z,15.38
2023-05-08T02:52:29.835Z,15.33
2023-05-08T02:55:01.208Z,15.29
2023-05-08T02:57:35.536Z,15.29
2023-05-08T03:00:28.727Z,15.22
2023-05-08T03:03:25.136Z,15.16
2023-05-08T03:05:56.998Z,15.13
2023-05-08T03:08:32.008Z,15.10
2023-05-08T03:11:19.292Z,15.06
2023-05-08T03:13:49.350Z,14.99
2023-05-08T03:16:23.121Z,14.93
2023-05-08T03:19:00.958Z,14.90
2023-05-08T03:21:31.707Z,14.87
2023-05-08T03:24:03.419Z,14.77
2023-05-08T03:26:32.990Z,14.69
2023-05-08T03:29:01.581Z,14.66
2023-05-08T03:31:33.228Z,14.62
2023-05-08T03:34:02.049Z,14.63
2023-05-08T03:36:31.506Z,14.62
2023-05-08T03:39:01.499Z,14.55
2023-05-08T03:41:30.158Z,14.54
2023-05-08T03:43:59.827Z,14.50
2023-05-08T03:46:28.140Z,14.43
2023-05-08T03:48:56.505Z,14.41
2023-05-08T03:51:24.861Z,14.37
2023-05-08T03:53:53.110Z,14.35
2023-05-08T03:56:22.369Z,14.33
2023-05-08T03:59:05.854Z,14.28
2023-05-08T04:01:43.111Z,14.24
2023-05-08T04:04:37.165Z,14.20
2023-05-08T04:07:48.603Z,14.19
2023-05-08T04:10:22.301Z,14.18
2023-05-08T04:13:13.605Z,14.13
2023-05-08T04:16:02.162Z,14.09
2023-05-08T04:18:33.783Z,14.05
2023-05-08T04:21:04.483Z,14.02
2023-05-08T04:23:34.519Z,13.96
2023-05-08T04:26:05.722Z,13.92
2023-05-08T04:28:35.849Z,13.91
2023-05-08T04:31:05.890Z,13.92
2023-05-08T04:33:36.449Z,13.89
2023-05-08T04:36:05.047Z,13.86
2023-05-08T04:38:37.141Z,13.83
2023-05-08T04:41:05.727Z,13.82
2023-05-08T04:43:33.985Z,13.80
2023-05-08T04:46:02.373Z,13.81
2023-05-08T04:48:32.766Z,13.83
2023-05-08T04:51:04.339Z,13.84
2023-05-08T04:53:33.290Z,13.83
2023-05-08T04:56:01.664Z,13.84
2023-05-08T04:58:29.950Z,13.88
2023-05-08T05:00:58.232Z,13.87
2023-05-08T05:03:26.482Z,13.84
2023-05-08T05:06:02.163Z,13.83
2023-05-08T05:08:30.394Z,13.75
2023-05-08T05:10:58.591Z,13.70
2023-05-08T05:13:26.905Z,13.68
2023-05-08T05:15:55.992Z,13.66
2023-05-08T05:18:24.244Z,13.63
2023-05-08T05:20:52.440Z,13.62
2023-05-08T05:23:20.658Z,13.62
2023-05-08T05:25:49.450Z,13.61
2023-05-08T05:28:17.688Z,13.61
2023-05-08T05:30:49.445Z,13.59
2023-05-08T05:33:17.664Z,13.60
2023-05-08T05:35:45.935Z,13.58
2023-05-08T05:38:14.129Z,13.55
2023-05-08T05:40:42.415Z,13.52
2023-05-08T05:43:10.818Z,13.48
2023-05-08T05:45:39.895Z,13.47
2023-05-08T05:48:08.685Z,13.44
2023-05-08T05:50:38.713Z,13.43
2023-05-08T05:53:07.095Z,13.42
2023-05-08T05:55:36.442Z,13.41
2023-05-08T05:58:04.741Z,13.40
2023-05-08T06:00:32.936Z,13.38
2023-05-08T06:03:01.311Z,13.35
2023-05-08T06:05:29.687Z,13.29
2023-05-08T06:07:58.099Z,13.23
2023-05-08T06:10:26.677Z,13.18
2023-05-08T06:12:55.520Z,13.15
2023-05-08T06:15:24.288Z,13.14
2023-05-08T06:17:53.632Z,13.13
2023-05-08T06:20:22.548Z,13.12
2023-05-08T06:22:51.757Z,13.08
2023-05-08T06:25:20.337Z,13.02
2023-05-08T06:27:49.065Z,12.99
2023-05-08T06:30:17.323Z,12.96
2023-05-08T06:32:45.623Z,12.97
2023-05-08T06:35:14.241Z,12.96
2023-05-08T06:37:42.709Z,12.95
2023-05-08T06:40:12.886Z,12.94
2023-05-08T06:42:41.936Z,12.95
2023-05-08T06:45:11.380Z,12.98
2023-05-08T06:47:40.109Z,12.99
2023-05-08T06:50:08.935Z,13.02
2023-05-08T06:52:37.266Z,13.01
2023-05-08T06:55:06.069Z,13.03
2023-05-08T06:57:34.285Z,13.04
2023-05-08T07:00:02.509Z,13.03
2023-05-08T07:02:30.752Z,13.04
2023-05-08T07:04:59.135Z,13.06
2023-05-08T07:07:27.647Z,13.05
2023-05-08T07:09:55.852Z,12.99
2023-05-08T07:12:24.052Z,12.96
2023-05-08T07:14:52.299Z,12.95
2023-05-08T07:17:20.582Z,12.93
2023-05-08T07:19:52.239Z,12.94
2023-05-08T07:22:20.543Z,12.89
2023-05-08T07:24:49.137Z,12.84
2023-05-08T07:27:17.600Z,12.76
2023-05-08T07:29:45.819Z,12.68
2023-05-08T07:32:14.145Z,12.64
2023-05-08T07:34:42.759Z,12.60
2023-05-08T07:37:13.704Z,12.52
2023-05-08T07:39:42.003Z,12.51
2023-05-08T07:42:10.203Z,12.51
2023-05-08T07:44:50.973Z,12.49
2023-05-08T07:47:23.040Z,12.44
2023-05-08T07:49:51.245Z,12.44
2023-05-08T07:52:19.465Z,12.41
2023-05-08T07:54:48.117Z,12.41
2023-05-08T07:57:16.526Z,12.38
2023-05-08T07:59:44.770Z,12.35
2023-05-08T08:02:12.962Z,12.28
2023-05-08T08:04:41.604Z,12.22
2023-05-08T08:07:09.849Z,12.18
2023-05-08T08:09:38.060Z,12.12
2023-05-08T08:12:06.510Z,12.07
2023-05-08T08:14:35.101Z,12.05
2023-05-08T08:17:03.322Z,12.00
2023-05-08T08:19:31.516Z,11.95
2023-05-08T08:21:59.676Z,11.94
2023-05-08T08:24:30.066Z,11.93
2023-05-08T08:26:58.283Z,11.91
2023-05-08T08:29:26.787Z,11.89
2023-05-08T08:31:55.137Z,11.87
2023-05-08T08:34:23.518Z,11.80
2023-05-08T08:36:51.775Z,11.71
2023-05-08T08:39:19.950Z,11.65
2023-05-08T08:41:48.719Z,11.63
2023-05-08T08:44:16.939Z,11.61
2023-05-08T08:46:54.925Z,11.61
2023-05-08T08:49:33.033Z,11.57
2023-05-08T08:52:04.569Z,11.56
2023-05-08T08:54:38.331Z,11.58
2023-05-08T08:57:08.979Z,11.56
2023-05-08T08:59:40.328Z,11.54
2023-05-08T09:02:15.920Z,11.55
2023-05-08T09:04:44.579Z,11.54
2023-05-08T09:07:13.298Z,11.52
2023-05-08T09:09:42.581Z,11.50
2023-05-08T09:12:11.253Z,11.49
2023-05-08T09:14:39.521Z,11.43
2023-05-08T09:17:07.685Z,11.42
2023-05-08T09:19:36.656Z,11.39
2023-05-08T09:22:07.660Z,11.33
2023-05-08T09:25:01.779Z,11.31
2023-05-08T09:27:31.374Z,11.32
2023-05-08T09:30:13.330Z,11.32
2023-05-08T09:32:46.572Z,11.29
2023-05-08T09:35:15.369Z,11.34
2023-05-08T09:37:44.553Z,11.36
2023-05-08T09:40:16.980Z,11.35
2023-05-08T09:42:45.500Z,11.37
2023-05-08T09:45:31.999Z,11.36
2023-05-08T09:48:00.732Z,11.36
2023-05-08T09:50:29.080Z,11.36
2023-05-08T09:52:57.329Z,11.31
2023-05-08T09:55:25.804Z,11.29
2023-05-08T09:58:00.024Z,11.28
2023-05-08T10:00:30.277Z,11.25
2023-05-08T10:03:01.073Z,11.24
2023-05-08T10:05:33.212Z,11.23
2023-05-08T10:08:20.708Z,11.19
2023-05-08T10:10:49.434Z,11.17
2023-05-08T10:13:17.792Z,11.15
2023-05-08T10:15:46.702Z,11.14
2023-05-08T10:18:18.833Z,11.11
2023-05-08T10:20:49.472Z,11.12
2023-05-08T10:23:18.453Z,11.12
2023-05-08T10:25:49.031Z,11.09
2023-05-08T10:28:25.433Z,11.05
2023-05-08T10:30:56.353Z,10.99
2023-05-08T10:33:31.921Z,10.97
2023-05-08T10:36:01.098Z,10.95
2023-05-08T10:38:29.494Z,10.92
2023-05-08T10:41:02.049Z,10.87
2023-05-08T10:43:34.826Z,10.83
2023-05-08T10:46:10.822Z,10.79
2023-05-08T10:48:57.478Z,10.74
2023-05-08T10:51:28.283Z,10.70
2023-05-08T10:54:27.483Z,10.69
2023-05-08T10:57:11.802Z,10.68
2023-05-08T10:59:40.244Z,10.63
2023-05-08T11:02:09.845Z,10.60
2023-05-08T11:04:39.105Z,10.57
2023-05-08T11:07:07.813Z,10.53
2023-05-08T11:09:44.926Z,10.55
2023-05-08T11:12:26.766Z,10.52
2023-05-08T11:15:07.331Z,10.52
2023-05-08T11:17:35.980Z,10.51
2023-05-08T11:20:06.741Z,10.52
2023-05-08T11:22:36.226Z,10.55
2023-05-08T11:25:10.849Z,10.54
2023-05-08T11:27:38.707Z,10.51
2023-05-08T11:30:26.710Z,10.49
2023-05-08T11:33:07.816Z,10.48
2023-05-08T11:35:49.362Z,10.50
2023-05-08T11:38:24.668Z,10.51
2023-05-08T11:41:12.595Z,10.46
2023-05-08T11:44:11.654Z,10.46
2023-05-08T11:46:49.219Z,10.40
2023-05-08T11:49:19.651Z,10.37
2023-05-08T11:51:55.967Z,10.35
2023-05-08T11:54:25.492Z,10.34
2023-05-08T11:56:58.346Z,10.37
2023-05-08T11:59:26.603Z,10.40
2023-05-08T12:04:26.020Z,10.42
2023-05-08T12:06:59.738Z,10.40
2023-05-08T12:09:28.204Z,10.37
2023-05-08T12:12:00.020Z,10.37
2023-05-08T12:14:28.244Z,10.36
2023-05-08T12:16:56.688Z,10.39
2023-05-08T12:19:24.984Z,10.40
2023-05-08T12:21:53.427Z,10.40
2023-05-08T12:24:25.179Z,10.45
2023-05-08T12:26:57.268Z,10.48
2023-05-08T12:29:28.360Z,10.56
2023-05-08T12:31:57.168Z,10.61
2023-05-08T12:34:25.418Z,10.65
2023-05-08T12:37:04.187Z,10.70
2023-05-08T12:39:37.638Z,10.76
2023-05-08T12:42:06.082Z,10.79
2023-05-08T12:44:34.281Z,10.85
2023-05-08T12:47:02.541Z,10.91
2023-05-08T12:49:32.489Z,10.97
2023-05-08T12:52:13.519Z,11.01
2023-05-08T12:54:48.002Z,11.06
2023-05-08T12:57:18.899Z,11.08
2023-05-08T12:59:48.131Z,11.13
2023-05-08T13:02:24.804Z,11.18
2023-05-08T13:04:56.914Z,11.20
2023-05-08T13:07:25.416Z,11.22
2023-05-08T13:10:06.349Z,11.26
2023-05-08T13:12:35.587Z,11.28
2023-05-08T13:15:05.617Z,11.30
2023-05-08T13:17:33.872Z,11.32
2023-05-08T13:20:06.050Z,11.38
2023-05-08T13:22:34.541Z,11.40
2023-05-08T13:25:02.917Z,11.41
2023-05-08T13:27:31.219Z,11.43
2023-05-08T13:29:59.419Z,11.47
2023-05-08T13:32:27.700Z,11.44
2023-05-08T13:34:58.834Z,11.43
2023-05-08T13:37:29.073Z,11.44
2023-05-08T13:39:57.314Z,11.47
2023-05-08T13:42:25.516Z,11.51
2023-05-08T13:44:53.712Z,11.53
2023-05-08T13:47:22.051Z,11.58
2023-05-08T13:49:51.140Z,11.61
2023-05-08T13:52:19.407Z,11.64
2023-05-08T13:54:47.641Z,11.69
2023-05-08T13:57:16.024Z,11.72
2023-05-08T13:59:44.414Z,11.74
2023-05-08T14:02:12.743Z,11.74
2023-05-08T14:04:41.692Z,11.75
2023-05-08T14:07:09.938Z,11.76
2023-05-08T14:09:38.216Z,11.79
2023-05-08T14:12:06.718Z,11.80
2023-05-08T14:14:35.001Z,11.79
2023-05-08T14:17:03.627Z,11.83
2023-05-08T14:19:32.198Z,11.84
2023-05-08T14:22:00.506Z,11.88
2023-05-08T14:24:28.735Z,11.91
2023-05-08T14:26:57.009Z,11.96
2023-05-08T14:29:25.630Z,12.02
2023-05-08T14:31:53.945Z,12.11
2023-05-08T14:34:22.298Z,12.20
2023-05-08T14:36:50.525Z,12.26
2023-05-08T14:39:18.813Z,12.30
2023-05-08T14:41:59.719Z,12.34
2023-05-08T14:44:35.550Z,12.38
2023-05-08T14:47:03.933Z,12.42
2023-05-08T14:49:38.143Z,12.50
2023-05-08T14:52:07.791Z,12.55
2023-05-08T14:54:36.386Z,12.51
2023-05-08T14:57:04.844Z,12.48
2023-05-08T14:59:33.107Z,12.53
2023-05-08T15:02:01.570Z,12.59
2023-05-08T15:04:29.999Z,12.68
2023-05-08T15:06:58.195Z,12.80
2023-05-08T15:09:26.425Z,12.92
2023-05-08T15:11:54.664Z,12.91
2023-05-08T15:14:22.872Z,12.92
2023-05-08T15:16:51.418Z,13.01
2023-05-08T15:19:19.714Z,13.14
2023-05-08T15:21:48.237Z,13.12
2023-05-08T15:24:16.510Z,13.06
2023-05-08T15:26:44.788Z,13.06
2023-05-08T15:29:13.088Z,13.05
2023-05-08T15:31:41.387Z,13.08
2023-05-08T15:34:09.780Z,13.17
2023-05-08T15:36:38.101Z,13.29
2023-05-08T15:39:06.437Z,13.44
2023-05-08T15:41:35.080Z,13.58
2023-05-08T15:44:03.828Z,13.70
2023-05-08T15:46:31.997Z,13.83
2023-05-08T15:49:02.556Z,14.00
2023-05-08T15:51:31.211Z,14.17
2023-05-08T15:53:59.597Z,14.13
2023-05-08T15:56:27.858Z,14.13
2023-05-08T15:58:56.379Z,14.23
2023-05-08T16:01:24.656Z,14.34
2023-05-08T16:03:52.911Z,14.42
2023-05-08T16:06:21.164Z,14.68
2023-05-08T16:08:49.549Z,14.82
2023-05-08T16:11:18.019Z,15.01
2023-05-08T16:13:46.246Z,15.04
2023-05-08T16:16:14.827Z,15.21
2023-05-08T16:18:43.018Z,15.44
2023-05-08T16:21:12.238Z,15.70
2023-05-08T16:23:40.553Z,16.01
2023-05-08T16:26:08.804Z,16.21
2023-05-08T16:28:36.986Z,16.36
2023-05-08T16:31:06.890Z,16.44
2023-05-08T16:33:35.152Z,16.38
2023-05-08T16:36:03.373Z,16.34
2023-05-08T16:38:31.591Z,16.37
2023-05-08T16:41:03.874Z,16.37
2023-05-08T16:43:32.437Z,16.36
2023-05-08T16:46:00.773Z,16.37
2023-05-08T16:48:29.800Z,16.39
2023-05-08T16:50:58.047Z,16.42
2023-05-08T16:53:29.027Z,16.43
2023-05-08T16:55:57.358Z,16.43
2023-05-08T16:58:27.888Z,16.53
2023-05-08T17:00:56.086Z,16.65
2023-05-08T17:03:24.452Z,16.73
2023-05-08T17:05:52.977Z,16.80
2023-05-08T17:08:21.246Z,16.93
2023-05-08T17:10:49.840Z,17.05
2023-05-08T17:13:18.126Z,17.36
2023-05-08T17:15:46.558Z,17.58
2023-05-08T17:18:14.985Z,17.72
2023-05-08T17:20:43.270Z,17.80
2023-05-08T17:23:11.801Z,17.78
2023-05-08T17:25:40.094Z,17.87
2023-05-08T17:28:08.297Z,17.78
2023-05-08T17:30:36.539Z,17.67
2023-05-08T17:33:04.963Z,17.60
2023-05-08T17:35:33.196Z,17.62
2023-05-08T17:38:01.684Z,17.59
2023-05-08T17:40:29.930Z,17.50
2023-05-08T17:42:59.998Z,17.38
2023-05-08T17:45:28.306Z,17.28
2023-05-08T17:47:56.545Z,17.14
2023-05-08T17:50:24.911Z,17.01
2023-05-08T17:52:53.133Z,16.97
2023-05-08T17:55:21.384Z,16.93
2023-05-08T17:57:49.817Z,16.90
2023-05-08T18:00:18.533Z,16.91
2023-05-08T18:02:46.920Z,16.91
2023-05-08T18:05:16.519Z,16.92
2023-05-08T18:07:44.690Z,16.88
2023-05-08T18:10:13.183Z,16.88
2023-05-08T18:12:41.806Z,16.86
2023-05-08T18:15:10.488Z,16.83
2023-05-08T18:17:38.718Z,16.77
2023-05-08T18:20:08.680Z,16.60
2023-05-08T18:22:37.210Z,16.50
2023-05-08T18:25:06.078Z,16.41
2023-05-08T18:27:37.249Z,16.39
2023-05-08T18:30:06.072Z,16.40
2023-05-08T18:32:34.467Z,16.43
2023-05-08T18:35:02.692Z,16.45
2023-05-08T18:37:30.867Z,16.48
2023-05-08T18:39:59.060Z,16.57
2023-05-08T18:42:27.316Z,16.65
2023-05-08T18:44:56.790Z,16.64
2023-05-08T18:47:25.039Z,16.56
2023-05-08T18:49:53.463Z,16.55
2023-05-08T18:52:21.695Z,16.58
2023-05-08T18:54:49.929Z,16.74
2023-05-08T18:57:18.292Z,16.95
2023-05-08T18:59:46.544Z,17.02
2023-05-08T19:02:15.394Z,16.88
2023-05-08T19:04:43.651Z,16.82
2023-05-08T19:07:11.858Z,16.78
2023-05-08T19:09:40.059Z,16.73
2023-05-08T19:12:08.318Z,16.69
2023-05-08T19:14:36.549Z,16.61
2023-05-08T19:17:04.833Z,16.70
2023-05-08T19:19:33.125Z,16.82
2023-05-08T19:22:01.359Z,16.87
2023-05-08T19:24:30.833Z,16.88
2023-05-08T19:26:59.920Z,16.88
2023-05-08T19:29:28.272Z,16.86
2023-05-08T19:31:57.452Z,16.87
2023-05-08T19:34:25.815Z,16.96
2023-05-08T19:36:54.035Z,17.19
2023-05-08T19:39:22.300Z,17.36
2023-05-08T19:41:50.539Z,17.66
2023-05-08T19:44:18.716Z,17.80
2023-05-08T19:46:47.418Z,18.04
2023-05-08T19:49:16.953Z,18.10
2023-05-08T19:51:45.195Z,18.02
2023-05-08T19:54:13.375Z,17.88
2023-05-08T19:56:41.643Z,17.75
2023-05-08T19:59:09.971Z,17.76
2023-05-08T20:01:38.541Z,17.88
2023-05-08T20:04:06.975Z,18.05
2023-05-08T20:06:35.339Z,17.96
2023-05-08T20:09:03.581Z,18.39
2023-05-08T20:11:31.845Z,18.92
2023-05-08T20:14:00.114Z,19.26
2023-05-08T20:16:29.453Z,19.21
2023-05-08T20:18:57.838Z,19.13
2023-05-08T20:21:26.493Z,19.12
2023-05-08T20:23:54.692Z,18.95
2023-05-08T20:26:22.973Z,18.79
2023-05-08T20:28:51.447Z,19.25
2023-05-08T20:31:19.753Z,19.45
2023-05-08T20:33:48.646Z,19.50
2023-05-08T20:36:16.898Z,19.36
2023-05-08T20:38:45.340Z,19.14
2023-05-08T20:41:13.758Z,19.01
2023-05-08T20:43:41.983Z,19.40
2023-05-08T20:46:10.915Z,20.05
2023-05-08T20:48:39.365Z,20.34
2023-05-08T20:51:07.669Z,20.42
2023-05-08T20:53:35.906Z,20.12
2023-05-08T20:56:05.671Z,19.75
2023-05-08T20:58:33.982Z,19.47
2023-05-08T21:01:02.301Z,19.23
2023-05-08T21:03:30.590Z,19.16
2023-05-08T21:05:58.820Z,19.15
2023-05-08T21:08:30.190Z,19.14
2023-05-08T21:10:58.428Z,19.25
2023-05-08T21:13:27.578Z,19.38
2023-05-08T21:15:55.775Z,19.65
2023-05-08T21:18:24.099Z,19.93
2023-05-08T21:20:52.305Z,19.95
2023-05-08T21:23:21.390Z,19.86
2023-05-08T21:25:51.501Z,19.78
2023-05-08T21:28:19.669Z,20.16
2023-05-08T21:30:48.525Z,20.04
2023-05-08T21:33:16.820Z,19.87
2023-05-08T21:35:45.139Z,20.21
2023-05-08T21:38:13.505Z,20.03
2023-05-08T21:40:41.778Z,20.12
2023-05-08T21:43:10.014Z,20.28
2023-05-08T21:45:38.326Z,20.13
2023-05-08T21:48:07.037Z,20.13
2023-05-08T21:50:35.376Z,20.78
2023-05-08T21:53:04.063Z,21.07
2023-05-08T21:55:32.635Z,21.68
2023-05-08T21:58:00.872Z,22.09
2023-05-08T22:00:29.384Z,22.47
2023-05-08T22:02:57.669Z,22.72
2023-05-08T22:05:26.179Z,22.94
2023-05-08T22:07:54.786Z,22.34
2023-05-08T22:10:23.411Z,22.05
2023-05-08T22:12:51.667Z,22.10
2023-05-08T22:15:29.815Z,22.31
2023-05-08T22:18:00.141Z,22.40
2023-05-08T22:20:28.401Z,22.52
2023-05-08T22:22:56.796Z,22.76
2023-05-08T22:25:26.109Z,22.82
2023-05-08T22:27:54.384Z,22.69
2023-05-08T22:30:22.795Z,22.65
2023-05-08T22:32:56.707Z,22.50
2023-05-08T22:35:26.798Z,22.60
2023-05-08T22:37:56.139Z,22.51
2023-05-08T22:40:25.048Z,22.48
2023-05-08T22:42:54.906Z,22.35
2023-05-08T22:45:23.794Z,22.23
2023-05-08T22:47:52.295Z,22.11
2023-05-08T22:50:20.822Z,21.98
2023-05-08T22:52:49.457Z,21.81
2023-05-08T22:55:17.999Z,21.75
2023-05-08T22:57:46.709Z,21.69
2023-05-08T23:00:17.051Z,21.57
2023-05-08T23:02:45.865Z,21.46
2023-05-08T23:05:14.847Z,21.43
2023-05-08T23:07:43.294Z,21.22
2023-05-08T23:10:11.968Z,21.04
2023-05-08T23:12:40.190Z,20.95
2023-05-08T23:15:09.365Z,20.93
2023-05-08T23:17:37.731Z,20.84
2023-05-08T23:20:06.719Z,20.61
2023-05-08T23:22:35.067Z,20.46
2023-05-08T23:25:15.130Z,20.41
2023-05-08T23:27:43.535Z,20.33
2023-05-08T23:30:13.975Z,20.18
2023-05-08T23:32:42.433Z,20.06
2023-05-08T23:35:11.635Z,20.03
2023-05-08T23:37:40.015Z,19.93
2023-05-08T23:40:08.938Z,19.73
2023-05-08T23:42:38.007Z,19.63
2023-05-08T23:45:07.265Z,19.61
2023-05-08T23:47:35.584Z,19.60
2023-05-08T23:50:03.859Z,19.57
2023-05-08T23:52:32.036Z,19.52
2023-05-08T23:55:00.233Z,19.36
2023-05-08T23:57:28.464Z,19.14
2023-05-08T23:59:56.688Z,19.06
